sensor_id;sensor_type;location;lat;lon;timestamp;pressure;altitude;pressure_sealevel;temperature;humidity
24858;BME280;12935;50.782;6.074;2024-02-04T00:01:15;100343.53;;;9.21;100.00
24858;BME280;12935;50.782;6.074;2024-02-04T00:03:40;100338.16;;;9.25;100.00
24858;BME280;12935;50.782;6.074;2024-02-04T00:06:05;100341.88;;;9.17;100.00
24858;BME280;12935;50.782;6.074;2024-02-04T00:08:31;100339.94;;;9.17;100.00
24858;BME280;12935;50.782;6.074;2024-02-04T00:10:57;100330.41;;;9.27;100.00
24858;BME280;12935;50.782;6.074;2024-02-04T00:13:22;100325.72;;;9.27;100.00
24858;BME280;12935;50.782;6.074;2024-02-04T00:15:47;100333.50;;;9.25;100.00
24858;BME280;12935;50.782;6.074;2024-02-04T00:18:12;100334.69;;;9.28;100.00
24858;BME280;12935;50.782;6.074;2024-02-04T00:20:38;100332.28;;;9.23;100.00
24858;BME280;12935;50.782;6.074;2024-02-04T00:23:03;100334.94;;;9.19;100.00
24858;BME280;12935;50.782;6.074;2024-02-04T00:25:28;100334.56;;;9.21;100.00
24858;BME280;12935;50.782;6.074;2024-02-04T00:27:54;100335.53;;;9.32;100.00
24858;BME280;12935;50.782;6.074;2024-02-04T00:30:20;100340.31;;;9.38;100.00
24858;BME280;12935;50.782;6.074;2024-02-04T00:32:45;100327.84;;;9.37;100.00
24858;BME280;12935;50.782;6.074;2024-02-04T00:35:10;100319.94;;;9.32;100.00
24858;BME280;12935;50.782;6.074;2024-02-04T00:37:36;100327.66;;;9.27;100.00
24858;BME280;12935;50.782;6.074;2024-02-04T00:40:02;100333.72;;;9.17;100.00
24858;BME280;12935;50.782;6.074;2024-02-04T00:42:27;100328.25;;;9.17;100.00
24858;BME280;12935;50.782;6.074;2024-02-04T00:44:52;100329.38;;;9.12;100.00
24858;BME280;12935;50.782;6.074;2024-02-04T00:47:18;100333.25;;;9.11;100.00
24858;BME280;12935;50.782;6.074;2024-02-04T00:49:43;100330.56;;;9.14;100.00
24858;BME280;12935;50.782;6.074;2024-02-04T00:52:08;100336.38;;;9.13;100.00
24858;BME280;12935;50.782;6.074;2024-02-04T00:54:33;100328.75;;;9.22;100.00
24858;BME280;12935;50.782;6.074;2024-02-04T00:56:59;100335.63;;;9.12;100.00
24858;BME280;12935;50.782;6.074;2024-02-04T00:59:25;100319.25;;;9.12;100.00
24858;BME280;12935;50.782;6.074;2024-02-04T01:01:50;100322.50;;;9.22;100.00
24858;BME280;12935;50.782;6.074;2024-02-04T01:04:15;100322.31;;;9.34;100.00
24858;BME280;12935;50.782;6.074;2024-02-04T01:06:41;100329.13;;;9.21;100.00
24858;BME280;12935;50.782;6.074;2024-02-04T01:09:06;100320.56;;;9.22;100.00
24858;BME280;12935;50.782;6.074;2024-02-04T01:11:32;100313.91;;;9.20;100.00
24858;BME280;12935;50.782;6.074;2024-02-04T01:13:57;100327.47;;;9.16;100.00
24858;BME280;12935;50.782;6.074;2024-02-04T01:16:23;100320.00;;;9.13;100.00
24858;BME280;12935;50.782;6.074;2024-02-04T01:18:48;100327.59;;;9.23;100.00
24858;BME280;12935;50.782;6.074;2024-02-04T01:21:13;100317.47;;;9.24;100.00
24858;BME280;12935;50.782;6.074;2024-02-04T01:23:38;100335.28;;;9.18;100.00
24858;BME280;12935;50.782;6.074;2024-02-04T01:26:04;100322.56;;;9.25;100.00
24858;BME280;12935;50.782;6.074;2024-02-04T01:28:29;100329.53;;;9.23;100.00
24858;BME280;12935;50.782;6.074;2024-02-04T01:30:55;100316.56;;;9.16;100.00
24858;BME280;12935;50.782;6.074;2024-02-04T01:33:20;100329.66;;;9.30;100.00
24858;BME280;12935;50.782;6.074;2024-02-04T01:35:45;100336.75;;;9.34;100.00
24858;BME280;12935;50.782;6.074;2024-02-04T01:38:10;100326.56;;;9.31;100.00
24858;BME280;12935;50.782;6.074;2024-02-04T01:40:36;100328.50;;;9.31;100.00
24858;BME280;12935;50.782;6.074;2024-02-04T01:43:01;100331.53;;;9.26;100.00
24858;BME280;12935;50.782;6.074;2024-02-04T01:45:26;100314.63;;;9.17;100.00
24858;BME280;12935;50.782;6.074;2024-02-04T01:47:52;100322.81;;;9.17;100.00
24858;BME280;12935;50.782;6.074;2024-02-04T01:50:19;100326.47;;;9.24;100.00
24858;BME280;12935;50.782;6.074;2024-02-04T01:52:44;100316.28;;;9.21;100.00
24858;BME280;12935;50.782;6.074;2024-02-04T01:55:10;100302.63;;;9.21;100.00
24858;BME280;12935;50.782;6.074;2024-02-04T01:57:36;100301.47;;;9.22;100.00
24858;BME280;12935;50.782;6.074;2024-02-04T02:00:03;100295.66;;;9.24;100.00
24858;BME280;12935;50.782;6.074;2024-02-04T02:02:30;100303.84;;;9.24;100.00
24858;BME280;12935;50.782;6.074;2024-02-04T02:04:56;100305.06;;;9.26;100.00
24858;BME280;12935;50.782;6.074;2024-02-04T02:07:22;100302.28;;;9.23;100.00
24858;BME280;12935;50.782;6.074;2024-02-04T02:09:47;100289.06;;;9.25;100.00
24858;BME280;12935;50.782;6.074;2024-02-04T02:12:38;100291.00;;;9.24;100.00
24858;BME280;12935;50.782;6.074;2024-02-04T02:15:27;100285.97;;;9.26;100.00
24858;BME280;12935;50.782;6.074;2024-02-04T02:18:48;100296.09;;;9.26;100.00
24858;BME280;12935;50.782;6.074;2024-02-04T02:23:30;100300.44;;;9.30;100.00
24858;BME280;12935;50.782;6.074;2024-02-04T02:25:59;100316.41;;;9.28;100.00
24858;BME280;12935;50.782;6.074;2024-02-04T02:28:25;100312.09;;;9.27;100.00
24858;BME280;12935;50.782;6.074;2024-02-04T02:30:50;100312.09;;;9.27;100.00
24858;BME280;12935;50.782;6.074;2024-02-04T02:33:16;100306.16;;;9.22;100.00
24858;BME280;12935;50.782;6.074;2024-02-04T02:35:42;100310.94;;;9.28;100.00
24858;BME280;12935;50.782;6.074;2024-02-04T02:38:18;100307.03;;;9.29;100.00
24858;BME280;12935;50.782;6.074;2024-02-04T02:40:59;100310.16;;;9.28;100.00
24858;BME280;12935;50.782;6.074;2024-02-04T02:43:29;100319.50;;;9.27;100.00
24858;BME280;12935;50.782;6.074;2024-02-04T02:45:55;100310.56;;;9.30;100.00
24858;BME280;12935;50.782;6.074;2024-02-04T02:48:20;100303.16;;;9.30;100.00
24858;BME280;12935;50.782;6.074;2024-02-04T02:50:47;100312.13;;;9.31;100.00
24858;BME280;12935;50.782;6.074;2024-02-04T02:53:12;100303.16;;;9.30;100.00
24858;BME280;12935;50.782;6.074;2024-02-04T02:55:38;100307.03;;;9.29;100.00
24858;BME280;12935;50.782;6.074;2024-02-04T02:58:03;100300.50;;;9.34;100.00
24858;BME280;12935;50.782;6.074;2024-02-04T03:00:28;100293.91;;;9.35;100.00
24858;BME280;12935;50.782;6.074;2024-02-04T03:02:53;100292.25;;;9.30;100.00
24858;BME280;12935;50.782;6.074;2024-02-04T03:05:19;100291.84;;;9.28;100.00
24858;BME280;12935;50.782;6.074;2024-02-04T03:07:44;100289.88;;;9.29;100.00
24858;BME280;12935;50.782;6.074;2024-02-04T03:10:10;100295.84;;;9.34;100.00
24858;BME280;12935;50.782;6.074;2024-02-04T03:12:36;100295.34;;;9.29;100.00
24858;BME280;12935;50.782;6.074;2024-02-04T03:15:01;100294.97;;;9.30;100.00
24858;BME280;12935;50.782;6.074;2024-02-04T03:17:27;100292.63;;;9.29;100.00
24858;BME280;12935;50.782;6.074;2024-02-04T03:19:52;100288.81;;;9.33;100.00
24858;BME280;12935;50.782;6.074;2024-02-04T03:22:19;100291.06;;;9.28;100.00
24858;BME280;12935;50.782;6.074;2024-02-04T03:24:46;100295.31;;;9.25;100.00
24858;BME280;12935;50.782;6.074;2024-02-04T03:27:11;100287.91;;;9.26;100.00
24858;BME280;12935;50.782;6.074;2024-02-04T03:29:37;100292.56;;;9.25;100.00
24858;BME280;12935;50.782;6.074;2024-02-04T03:32:02;100302.69;;;9.25;100.00
24858;BME280;12935;50.782;6.074;2024-02-04T03:34:28;100286.75;;;9.27;100.00
24858;BME280;12935;50.782;6.074;2024-02-04T03:36:53;100292.25;;;9.30;100.00
24858;BME280;12935;50.782;6.074;2024-02-04T03:39:18;100287.56;;;9.27;100.00
24858;BME280;12935;50.782;6.074;2024-02-04T03:41:44;100298.06;;;9.29;100.00
24858;BME280;12935;50.782;6.074;2024-02-04T03:44:09;100315.63;;;9.28;100.00
24858;BME280;12935;50.782;6.074;2024-02-04T03:46:34;100306.25;;;9.29;100.00
24858;BME280;12935;50.782;6.074;2024-02-04T03:48:59;100306.63;;;9.27;100.00
24858;BME280;12935;50.782;6.074;2024-02-04T03:51:25;100294.25;;;9.33;100.00
24858;BME280;12935;50.782;6.074;2024-02-04T03:53:50;100293.47;;;9.33;100.00
24858;BME280;12935;50.782;6.074;2024-02-04T03:56:16;100283.34;;;9.33;100.00
24858;BME280;12935;50.782;6.074;2024-02-04T03:58:42;100276.38;;;9.36;100.00
24858;BME280;12935;50.782;6.074;2024-02-04T04:01:13;100282.69;;;9.40;100.00
24858;BME280;12935;50.782;6.074;2024-02-04T04:03:42;100295.09;;;9.37;100.00
24858;BME280;12935;50.782;6.074;2024-02-04T04:06:08;100297.84;;;9.37;100.00
24858;BME280;12935;50.782;6.074;2024-02-04T04:08:34;100288.88;;;9.37;100.00
24858;BME280;12935;50.782;6.074;2024-02-04T04:10:59;100271.34;;;9.38;100.00
24858;BME280;12935;50.782;6.074;2024-02-04T04:13:24;100273.72;;;9.39;100.00
24858;BME280;12935;50.782;6.074;2024-02-04T04:15:50;100283.41;;;9.37;100.00
24858;BME280;12935;50.782;6.074;2024-02-04T04:18:16;100285.66;;;9.31;100.00
24858;BME280;12935;50.782;6.074;2024-02-04T04:20:41;100281.09;;;9.39;100.00
24858;BME280;12935;50.782;6.074;2024-02-04T04:23:07;100269.34;;;9.35;100.00
24858;BME280;12935;50.782;6.074;2024-02-04T04:25:32;100281.03;;;9.35;100.00
24858;BME280;12935;50.782;6.074;2024-02-04T04:27:58;100288.44;;;9.35;100.00
24858;BME280;12935;50.782;6.074;2024-02-04T04:30:23;100290.75;;;9.33;100.00
24858;BME280;12935;50.782;6.074;2024-02-04T04:32:49;100291.94;;;9.35;100.00
24858;BME280;12935;50.782;6.074;2024-02-04T04:35:14;100282.63;;;9.36;100.00
24858;BME280;12935;50.782;6.074;2024-02-04T04:37:39;100271.66;;;9.33;100.00
24858;BME280;12935;50.782;6.074;2024-02-04T04:40:05;100296.25;;;9.36;100.00
24858;BME280;12935;50.782;6.074;2024-02-04T04:42:31;100282.63;;;9.36;100.00
24858;BME280;12935;50.782;6.074;2024-02-04T04:44:56;100290.06;;;9.39;100.00
24858;BME280;12935;50.782;6.074;2024-02-04T04:47:21;100283.91;;;9.42;100.00
24858;BME280;12935;50.782;6.074;2024-02-04T04:49:47;100283.84;;;9.39;100.00
24858;BME280;12935;50.782;6.074;2024-02-04T04:52:12;100289.28;;;9.39;100.00
24858;BME280;12935;50.782;6.074;2024-02-04T04:54:39;100284.06;;;9.30;100.00
24858;BME280;12935;50.782;6.074;2024-02-04T04:57:04;100297.91;;;9.41;100.00
24858;BME280;12935;50.782;6.074;2024-02-04T04:59:29;100303.34;;;9.41;100.00
24858;BME280;12935;50.782;6.074;2024-02-04T05:01:55;100296.75;;;9.42;100.00
24858;BME280;12935;50.782;6.074;2024-02-04T05:04:20;100302.56;;;9.40;100.00
24858;BME280;12935;50.782;6.074;2024-02-04T05:06:48;100308.03;;;9.40;100.00
24858;BME280;12935;50.782;6.074;2024-02-04T05:09:14;100289.28;;;9.39;100.00
24858;BME280;12935;50.782;6.074;2024-02-04T05:11:39;100289.53;;;9.30;100.00
24858;BME280;12935;50.782;6.074;2024-02-04T05:14:04;100284.50;;;9.32;100.00
24858;BME280;12935;50.782;6.074;2024-02-04T05:16:30;100277.53;;;9.35;100.00
24858;BME280;12935;50.782;6.074;2024-02-04T05:18:55;100273.22;;;9.34;100.00
24858;BME280;12935;50.782;6.074;2024-02-04T05:21:20;100252.25;;;9.38;100.00
24858;BME280;12935;50.782;6.074;2024-02-04T05:23:46;100244.91;;;9.42;100.00
24858;BME280;12935;50.782;6.074;2024-02-04T05:26:11;100242.44;;;9.33;100.00
24858;BME280;12935;50.782;6.074;2024-02-04T05:28:36;100242.50;;;9.37;100.00
24858;BME280;12935;50.782;6.074;2024-02-04T05:31:01;100229.66;;;9.37;100.00
24858;BME280;12935;50.782;6.074;2024-02-04T05:33:27;100239.03;;;9.40;100.00
24858;BME280;12935;50.782;6.074;2024-02-04T05:35:53;100236.97;;;9.33;100.00
24858;BME280;12935;50.782;6.074;2024-02-04T05:38:18;100256.88;;;9.34;100.00
24858;BME280;12935;50.782;6.074;2024-02-04T05:40:43;100250.75;;;9.40;100.00
24858;BME280;12935;50.782;6.074;2024-02-04T05:43:08;100255.78;;;9.38;100.00
24858;BME280;12935;50.782;6.074;2024-02-04T05:45:36;100251.88;;;9.39;100.00
24858;BME280;12935;50.782;6.074;2024-02-04T05:48:02;100259.66;;;9.37;100.00
24858;BME280;12935;50.782;6.074;2024-02-04T05:50:27;100245.94;;;9.34;100.00
24858;BME280;12935;50.782;6.074;2024-02-04T05:52:53;100229.34;;;9.42;100.00
24858;BME280;12935;50.782;6.074;2024-02-04T05:55:18;100221.25;;;9.49;100.00
24858;BME280;12935;50.782;6.074;2024-02-04T05:57:43;100224.69;;;9.43;100.00
24858;BME280;12935;50.782;6.074;2024-02-04T06:00:09;100239.72;;;9.33;100.00
24858;BME280;12935;50.782;6.074;2024-02-04T06:02:35;100244.81;;;9.35;100.00
24858;BME280;12935;50.782;6.074;2024-02-04T06:05:01;100226.00;;;9.30;100.00
24858;BME280;12935;50.782;6.074;2024-02-04T06:07:26;100244.06;;;9.38;100.00
24858;BME280;12935;50.782;6.074;2024-02-04T06:09:52;100247.94;;;9.37;100.00
24858;BME280;12935;50.782;6.074;2024-02-04T06:12:17;100246.44;;;9.39;100.00
24858;BME280;12935;50.782;6.074;2024-02-04T06:14:42;100242.28;;;9.49;100.00
24858;BME280;12935;50.782;6.074;2024-02-04T06:17:07;100241.66;;;9.33;100.00
24858;BME280;12935;50.782;6.074;2024-02-04T06:19:34;100246.00;;;9.37;100.00
24858;BME280;12935;50.782;6.074;2024-02-04T06:22:00;100252.56;;;9.33;100.00
24858;BME280;12935;50.782;6.074;2024-02-04T06:24:25;100246.31;;;9.32;100.00
24858;BME280;12935;50.782;6.074;2024-02-04T06:26:50;100253.81;;;9.39;100.00
24858;BME280;12935;50.782;6.074;2024-02-04T06:29:16;100253.03;;;9.38;100.00
24858;BME280;12935;50.782;6.074;2024-02-04T06:31:44;100233.88;;;9.35;100.00
24858;BME280;12935;50.782;6.074;2024-02-04T06:34:10;100238.91;;;9.33;100.00
24858;BME280;12935;50.782;6.074;2024-02-04T06:36:35;100242.84;;;9.35;100.00
24858;BME280;12935;50.782;6.074;2024-02-04T06:39:00;100236.13;;;9.29;100.00
24858;BME280;12935;50.782;6.074;2024-02-04T06:41:26;100231.94;;;9.35;100.00
24858;BME280;12935;50.782;6.074;2024-02-04T06:43:51;100228.75;;;9.30;100.00
24858;BME280;12935;50.782;6.074;2024-02-04T06:46:26;100219.78;;;9.29;100.00
24858;BME280;12935;50.782;6.074;2024-02-04T06:48:52;100222.50;;;9.29;100.00
24858;BME280;12935;50.782;6.074;2024-02-04T06:51:18;100217.84;;;9.30;100.00
24858;BME280;12935;50.782;6.074;2024-02-04T06:53:43;100224.56;;;9.36;100.00
24858;BME280;12935;50.782;6.074;2024-02-04T06:56:09;100231.59;;;9.37;100.00
24858;BME280;12935;50.782;6.074;2024-02-04T06:58:40;100228.00;;;9.33;100.00
24858;BME280;12935;50.782;6.074;2024-02-04T07:01:05;100229.22;;;9.35;100.00
24858;BME280;12935;50.782;6.074;2024-02-04T07:03:31;100236.19;;;9.33;100.00
24858;BME280;12935;50.782;6.074;2024-02-04T07:05:58;100242.50;;;9.37;100.00
24858;BME280;12935;50.782;6.074;2024-02-04T07:08:23;100238.50;;;9.31;100.00
24858;BME280;12935;50.782;6.074;2024-02-04T07:10:49;100249.03;;;9.32;100.00
24858;BME280;12935;50.782;6.074;2024-02-04T07:13:14;100235.78;;;9.31;100.00
24858;BME280;12935;50.782;6.074;2024-02-04T07:15:39;100236.56;;;9.31;100.00
24858;BME280;12935;50.782;6.074;2024-02-04T07:18:05;100245.50;;;9.28;100.00
24858;BME280;12935;50.782;6.074;2024-02-04T07:20:30;100232.63;;;9.29;100.00
24858;BME280;12935;50.782;6.074;2024-02-04T07:22:55;100241.59;;;9.29;100.00
24858;BME280;12935;50.782;6.074;2024-02-04T07:25:21;100240.81;;;9.29;100.00
24858;BME280;12935;50.782;6.074;2024-02-04T07:27:47;100239.34;;;9.35;100.00
24858;BME280;12935;50.782;6.074;2024-02-04T07:30:12;100230.38;;;9.34;100.00
24858;BME280;12935;50.782;6.074;2024-02-04T07:32:38;100221.78;;;9.32;100.00
24858;BME280;12935;50.782;6.074;2024-02-04T07:35:03;100233.88;;;9.35;100.00
24858;BME280;12935;50.782;6.074;2024-02-04T07:37:29;100224.13;;;9.34;100.00
24858;BME280;12935;50.782;6.074;2024-02-04T07:39:54;100216.84;;;9.41;100.00
24858;BME280;12935;50.782;6.074;2024-02-04T07:42:19;100231.22;;;9.38;100.00
24858;BME280;12935;50.782;6.074;2024-02-04T07:44:45;100241.03;;;9.43;100.00
24858;BME280;12935;50.782;6.074;2024-02-04T07:47:10;100236.31;;;9.40;100.00
24858;BME280;12935;50.782;6.074;2024-02-04T07:49:36;100249.88;;;9.36;100.00
24858;BME280;12935;50.782;6.074;2024-02-04T07:52:02;100251.09;;;9.39;100.00
24858;BME280;12935;50.782;6.074;2024-02-04T07:54:28;100250.38;;;9.42;100.00
24858;BME280;12935;50.782;6.074;2024-02-04T07:56:53;100248.47;;;9.46;100.00
24858;BME280;12935;50.782;6.074;2024-02-04T07:59:19;100255.50;;;9.47;100.00
24858;BME280;12935;50.782;6.074;2024-02-04T08:01:44;100236.81;;;9.49;100.00
24858;BME280;12935;50.782;6.074;2024-02-04T08:04:09;100245.53;;;9.58;100.00
24858;BME280;12935;50.782;6.074;2024-02-04T08:06:36;100232.28;;;9.60;100.00
24858;BME280;12935;50.782;6.074;2024-02-04T08:09:03;100241.56;;;9.52;100.00
24858;BME280;12935;50.782;6.074;2024-02-04T08:11:28;100247.38;;;9.50;100.00
24858;BME280;12935;50.782;6.074;2024-02-04T08:13:53;100230.59;;;9.48;100.00
24858;BME280;12935;50.782;6.074;2024-02-04T08:16:19;100232.94;;;9.50;100.00
24858;BME280;12935;50.782;6.074;2024-02-04T08:18:45;100231.00;;;9.50;100.00
24858;BME280;12935;50.782;6.074;2024-02-04T08:21:11;100224.88;;;9.57;100.00
24858;BME280;12935;50.782;6.074;2024-02-04T08:23:36;100229.13;;;9.55;100.00
24858;BME280;12935;50.782;6.074;2024-02-04T08:26:01;100235.03;;;9.60;100.00
24858;BME280;12935;50.782;6.074;2024-02-04T08:28:27;100237.31;;;9.55;100.00
24858;BME280;12935;50.782;6.074;2024-02-04T08:30:52;100236.16;;;9.56;100.00
24858;BME280;12935;50.782;6.074;2024-02-04T08:33:18;100239.59;;;9.53;100.00
24858;BME280;12935;50.782;6.074;2024-02-04T08:35:44;100217.91;;;9.60;100.00
24858;BME280;12935;50.782;6.074;2024-02-04T08:38:09;100236.94;;;9.56;100.00
24858;BME280;12935;50.782;6.074;2024-02-04T08:40:34;100237.44;;;9.65;100.00
24858;BME280;12935;50.782;6.074;2024-02-04T08:42:59;100234.25;;;9.60;100.00
24858;BME280;12935;50.782;6.074;2024-02-04T08:45:25;100243.25;;;9.64;100.00
24858;BME280;12935;50.782;6.074;2024-02-04T08:47:50;100235.56;;;9.69;100.00
24858;BME280;12935;50.782;6.074;2024-02-04T08:50:15;100235.88;;;9.64;100.00
24858;BME280;12935;50.782;6.074;2024-02-04T08:52:41;100224.63;;;9.69;100.00
24858;BME280;12935;50.782;6.074;2024-02-04T08:55:06;100224.28;;;9.71;100.00
24858;BME280;12935;50.782;6.074;2024-02-04T08:57:31;100223.06;;;9.68;100.00
24858;BME280;12935;50.782;6.074;2024-02-04T08:59:57;100217.97;;;9.67;100.00
24858;BME280;12935;50.782;6.074;2024-02-04T09:02:22;100213.63;;;9.62;100.00
24858;BME280;12935;50.782;6.074;2024-02-04T09:04:47;100225.28;;;9.59;100.00
24858;BME280;12935;50.782;6.074;2024-02-04T09:07:12;100211.25;;;9.61;100.00
24858;BME280;12935;50.782;6.074;2024-02-04T09:09:38;100221.78;;;9.59;100.00
24858;BME280;12935;50.782;6.074;2024-02-04T09:12:03;100231.13;;;9.61;100.00
24858;BME280;12935;50.782;6.074;2024-02-04T09:14:29;100234.25;;;9.60;100.00
24858;BME280;12935;50.782;6.074;2024-02-04T09:16:54;100235.44;;;9.62;100.00
24858;BME280;12935;50.782;6.074;2024-02-04T09:19:19;100243.25;;;9.64;100.00
24858;BME280;12935;50.782;6.074;2024-02-04T09:21:45;100254.13;;;9.60;100.00
24858;BME280;12935;50.782;6.074;2024-02-04T09:24:10;100273.56;;;9.55;100.00
24858;BME280;12935;50.782;6.074;2024-02-04T09:26:36;100274.72;;;9.54;100.00
24858;BME280;12935;50.782;6.074;2024-02-04T09:29:01;100273.56;;;9.55;100.00
24858;BME280;12935;50.782;6.074;2024-02-04T09:31:27;100267.00;;;9.60;100.00
24858;BME280;12935;50.782;6.074;2024-02-04T09:33:53;100272.41;;;9.56;100.00
24858;BME280;12935;50.782;6.074;2024-02-04T09:36:18;100259.13;;;9.55;100.00
24858;BME280;12935;50.782;6.074;2024-02-04T09:38:44;100262.69;;;9.59;100.00
24858;BME280;12935;50.782;6.074;2024-02-04T09:41:09;100268.16;;;9.59;100.00
24858;BME280;12935;50.782;6.074;2024-02-04T09:43:35;100261.75;;;9.74;100.00
24858;BME280;12935;50.782;6.074;2024-02-04T09:46:01;100265.25;;;9.74;100.00
24858;BME280;12935;50.782;6.074;2024-02-04T09:48:31;100254.44;;;9.81;100.00
24858;BME280;12935;50.782;6.074;2024-02-04T09:50:57;100238.75;;;9.75;100.00
24858;BME280;12935;50.782;6.074;2024-02-04T09:53:33;100247.88;;;9.86;100.00
24858;BME280;12935;50.782;6.074;2024-02-04T09:56:03;100248.13;;;9.77;100.00
24858;BME280;12935;50.782;6.074;2024-02-04T09:58:31;100238.00;;;9.78;100.00
24858;BME280;12935;50.782;6.074;2024-02-04T10:00:57;100251.75;;;9.85;100.00
24858;BME280;12935;50.782;6.074;2024-02-04T10:03:22;100241.69;;;9.93;100.00
24858;BME280;12935;50.782;6.074;2024-02-04T10:05:48;100241.88;;;9.77;100.00
24858;BME280;12935;50.782;6.074;2024-02-04T10:08:14;100225.78;;;9.68;100.00
24858;BME280;12935;50.782;6.074;2024-02-04T10:10:39;100231.34;;;9.75;100.00
24858;BME280;12935;50.782;6.074;2024-02-04T10:13:09;100229.81;;;9.78;100.00
24858;BME280;12935;50.782;6.074;2024-02-04T10:15:34;100226.63;;;9.72;100.00
24858;BME280;12935;50.782;6.074;2024-02-04T10:18:02;100236.84;;;9.79;100.00
24858;BME280;12935;50.782;6.074;2024-02-04T10:20:28;100243.13;;;9.83;100.00
24858;BME280;12935;50.782;6.074;2024-02-04T10:22:53;100242.34;;;9.82;100.00
24858;BME280;12935;50.782;6.074;2024-02-04T10:25:20;100245.44;;;9.81;100.00
24858;BME280;12935;50.782;6.074;2024-02-04T10:27:46;100235.38;;;9.85;100.00
24858;BME280;12935;50.782;6.074;2024-02-04T10:30:12;100231.81;;;9.81;100.00
24858;BME280;12935;50.782;6.074;2024-02-04T10:32:38;100239.56;;;9.79;100.00
24858;BME280;12935;50.782;6.074;2024-02-04T10:35:03;100239.50;;;9.72;100.00
24858;BME280;12935;50.782;6.074;2024-02-04T10:37:29;100243.44;;;9.74;100.00
24858;BME280;12935;50.782;6.074;2024-02-04T10:39:54;100223.53;;;9.74;100.00
24858;BME280;12935;50.782;6.074;2024-02-04T10:42:24;100238.69;;;9.71;100.00
24858;BME280;12935;50.782;6.074;2024-02-04T10:44:53;100239.91;;;9.74;100.00
24858;BME280;12935;50.782;6.074;2024-02-04T10:47:22;100255.88;;;9.72;100.00
24858;BME280;12935;50.782;6.074;2024-02-04T10:49:50;100255.06;;;9.71;100.00
24858;BME280;12935;50.782;6.074;2024-02-04T10:52:18;100256.22;;;9.70;100.00
24858;BME280;12935;50.782;6.074;2024-02-04T10:54:44;100266.34;;;9.70;100.00
24858;BME280;12935;50.782;6.074;2024-02-04T10:57:12;100260.13;;;9.69;100.00
24858;BME280;12935;50.782;6.074;2024-02-04T10:59:42;100264.72;;;9.65;100.00
24858;BME280;12935;50.782;6.074;2024-02-04T11:02:08;100268.19;;;9.62;100.00
24858;BME280;12935;50.782;6.074;2024-02-04T11:04:35;100258.44;;;9.61;100.00
24858;BME280;12935;50.782;6.074;2024-02-04T11:07:03;100255.63;;;9.54;100.00
24858;BME280;12935;50.782;6.074;2024-02-04T11:09:28;100269.41;;;9.65;100.00
24858;BME280;12935;50.782;6.074;2024-02-04T11:11:55;100249.94;;;9.66;100.00
24858;BME280;12935;50.782;6.074;2024-02-04T11:14:22;100250.78;;;9.70;100.00
24858;BME280;12935;50.782;6.074;2024-02-04T11:23:01;100240.03;;;9.84;100.00
24858;BME280;12935;50.782;6.074;2024-02-04T11:25:44;100256.09;;;9.90;100.00
24858;BME280;12935;50.782;6.074;2024-02-04T11:28:11;100237.78;;;9.90;100.00
24858;BME280;12935;50.782;6.074;2024-02-04T11:30:37;100232.91;;;9.76;100.00
24858;BME280;12935;50.782;6.074;2024-02-04T11:33:03;100222.56;;;9.89;100.00
24858;BME280;12935;50.782;6.074;2024-02-04T11:35:31;100225.50;;;9.77;100.00
24858;BME280;12935;50.782;6.074;2024-02-04T11:37:57;100212.81;;;9.92;100.00
24858;BME280;12935;50.782;6.074;2024-02-04T11:40:22;100216.31;;;9.89;100.00
24858;BME280;12935;50.782;6.074;2024-02-04T11:42:49;100218.22;;;9.84;100.00
24858;BME280;12935;50.782;6.074;2024-02-04T11:45:15;100216.44;;;9.99;100.00
24858;BME280;12935;50.782;6.074;2024-02-04T11:47:42;100214.78;;;9.91;100.00
24858;BME280;12935;50.782;6.074;2024-02-04T11:50:08;100201.28;;;9.72;100.00
24858;BME280;12935;50.782;6.074;2024-02-04T11:52:34;100185.91;;;9.60;100.00
24858;BME280;12935;50.782;6.074;2024-02-04T11:55:00;100182.00;;;9.58;100.00
24858;BME280;12935;50.782;6.074;2024-02-04T11:57:25;100194.31;;;9.48;100.00
24858;BME280;12935;50.782;6.074;2024-02-04T11:59:52;100202.63;;;9.55;100.00
24858;BME280;12935;50.782;6.074;2024-02-04T12:02:19;100190.59;;;9.60;100.00
24858;BME280;12935;50.782;6.074;2024-02-04T12:04:45;100172.69;;;9.62;100.00
24858;BME280;12935;50.782;6.074;2024-02-04T12:07:11;100180.13;;;9.65;100.00
24858;BME280;12935;50.782;6.074;2024-02-04T12:09:38;100177.88;;;9.71;100.00
24858;BME280;12935;50.782;6.074;2024-02-04T12:12:04;100193.00;;;9.65;100.00
24858;BME280;12935;50.782;6.074;2024-02-04T12:14:30;100190.00;;;9.73;100.00
24858;BME280;12935;50.782;6.074;2024-02-04T12:16:56;100180.88;;;9.62;100.00
24858;BME280;12935;50.782;6.074;2024-02-04T12:19:22;100180.56;;;9.67;100.00
24858;BME280;12935;50.782;6.074;2024-02-04T12:21:48;100176.44;;;9.80;100.00
24858;BME280;12935;50.782;6.074;2024-02-04T12:24:14;100171.75;;;9.81;100.00
24858;BME280;12935;50.782;6.074;2024-02-04T12:26:39;100171.69;;;9.74;100.00
24858;BME280;12935;50.782;6.074;2024-02-04T12:29:06;100178.19;;;9.66;100.00
24858;BME280;12935;50.782;6.074;2024-02-04T12:31:31;100180.97;;;9.69;100.00
24858;BME280;12935;50.782;6.074;2024-02-04T12:33:59;100187.03;;;9.85;100.00
24858;BME280;12935;50.782;6.074;2024-02-04T12:36:31;100175.00;;;9.90;100.00
24858;BME280;12935;50.782;6.074;2024-02-04T12:39:01;100185.88;;;9.87;100.00
24858;BME280;12935;50.782;6.074;2024-02-04T12:41:27;100183.47;;;9.81;100.00
24858;BME280;12935;50.782;6.074;2024-02-04T12:43:57;100183.03;;;9.79;100.00
24858;BME280;12935;50.782;6.074;2024-02-04T12:46:23;100188.06;;;9.74;100.00
24858;BME280;12935;50.782;6.074;2024-02-04T12:48:52;100175.28;;;9.81;100.00
24858;BME280;12935;50.782;6.074;2024-02-04T12:51:30;100163.50;;;9.74;100.00
24858;BME280;12935;50.782;6.074;2024-02-04T12:54:07;100167.50;;;9.83;100.00